createdAt,value
2023-03-21T00:01:53.973Z,20.23
2023-03-21T00:04:28.395Z,23.92
2023-03-21T00:06:57.214Z,23.38
2023-03-21T00:09:24.834Z,20.52
2023-03-21T00:11:52.314Z,22.75
2023-03-21T00:14:20.580Z,21.02
2023-03-21T00:16:52.660Z,18.05
2023-03-21T00:19:21.867Z,22.25
2023-03-21T00:22:06.485Z,22.13
2023-03-21T00:24:36.466Z,18.83
2023-03-21T00:27:26.861Z,31.48
2023-03-21T00:29:54.578Z,18.48
2023-03-21T00:32:24.992Z,23.15
2023-03-21T00:35:11.824Z,19.27
2023-03-21T00:37:39.806Z,29.05
2023-03-21T00:40:23.022Z,29.02
2023-03-21T00:42:52.906Z,20.92
2023-03-21T00:45:22.426Z,36.40
2023-03-21T00:47:50.032Z,30.67
2023-03-21T00:50:18.399Z,22.23
2023-03-21T00:52:45.951Z,29.02
2023-03-21T00:55:18.745Z,27.83
2023-03-21T00:57:50.143Z,23.05
2023-03-21T01:00:23.750Z,26.45
2023-03-21T01:03:14.186Z,23.85
2023-03-21T01:06:06.277Z,27.83
2023-03-21T01:08:51.106Z,23.17
2023-03-21T01:13:54.612Z,30.85
2023-03-21T01:16:25.815Z,26.65
2023-03-21T01:18:53.930Z,21.08
2023-03-21T01:21:21.402Z,29.85
2023-03-21T01:23:49.028Z,30.23
2023-03-21T01:26:16.867Z,25.73
2023-03-21T01:28:44.608Z,30.85
2023-03-21T01:31:14.278Z,28.92
2023-03-21T01:33:41.731Z,36.20
2023-03-21T01:36:14.683Z,27.15
2023-03-21T01:38:43.641Z,30.80
2023-03-21T01:41:45.675Z,34.50
2023-03-21T01:44:19.134Z,32.30
2023-03-21T01:49:46.503Z,48.28
2023-03-21T01:52:35.877Z,31.92
2023-03-21T01:55:08.837Z,37.95
2023-03-21T01:57:55.201Z,33.45
2023-03-21T02:00:32.830Z,31.30
2023-03-21T02:03:13.819Z,31.60
2023-03-21T02:06:01.071Z,27.00
2023-03-21T02:08:39.185Z,37.70
2023-03-21T02:11:10.224Z,36.00
2023-03-21T02:13:38.426Z,37.08
2023-03-21T02:16:42.935Z,36.38
2023-03-21T02:19:35.659Z,35.88
2023-03-21T02:22:45.147Z,35.28
2023-03-21T02:25:24.370Z,35.47
2023-03-21T02:28:05.454Z,31.27
2023-03-21T02:30:56.855Z,30.33
2023-03-21T02:33:42.767Z,30.10
2023-03-21T02:38:58.528Z,34.22
2023-03-21T02:41:43.599Z,40.08
2023-03-21T02:44:37.623Z,37.08
2023-03-21T02:47:28.967Z,37.80
2023-03-21T02:49:58.715Z,37.42
2023-03-21T02:52:39.118Z,37.60
2023-03-21T02:55:15.797Z,41.35
2023-03-21T02:57:46.566Z,36.30
2023-03-21T03:00:19.248Z,41.22
2023-03-21T03:02:48.857Z,34.78
2023-03-21T03:05:23.813Z,39.53
2023-03-21T03:08:04.037Z,38.70
2023-03-21T03:10:49.282Z,37.55
2023-03-21T03:13:33.298Z,37.95
2023-03-21T03:16:37.037Z,39.05
2023-03-21T03:19:09.180Z,41.88
2023-03-21T03:22:07.161Z,47.97
2023-03-21T03:24:48.073Z,42.42
2023-03-21T03:27:22.770Z,45.10
2023-03-21T03:29:51.462Z,44.30
2023-03-21T03:32:20.646Z,37.85
2023-03-21T03:34:56.550Z,39.15
2023-03-21T03:37:30.099Z,41.67
2023-03-21T03:40:12.108Z,41.38
2023-03-21T03:42:43.585Z,37.40
2023-03-21T03:45:11.439Z,45.95
2023-03-21T03:47:59.081Z,40.88
2023-03-21T03:50:31.730Z,36.03
2023-03-21T03:53:18.833Z,38.53
2023-03-21T03:55:48.062Z,42.78
2023-03-21T03:58:23.765Z,37.13
2023-03-21T04:00:53.937Z,38.88
2023-03-21T04:03:21.871Z,38.53
2023-03-21T04:05:49.328Z,44.13
2023-03-21T04:08:17.586Z,42.83
2023-03-21T04:10:45.455Z,43.92
2023-03-21T04:13:12.749Z,43.20
2023-03-21T04:15:40.190Z,41.90
2023-03-21T04:18:07.656Z,54.95
2023-03-21T04:20:37.171Z,40.35
2023-03-21T04:23:06.376Z,38.65
2023-03-21T04:25:44.622Z,43.17
2023-03-21T04:28:17.929Z,41.25
2023-03-21T04:31:00.376Z,39.92
2023-03-21T04:33:29.357Z,36.92
2023-03-21T04:35:57.224Z,41.47
2023-03-21T04:38:31.068Z,39.58
2023-03-21T04:40:59.164Z,42.88
2023-03-21T04:43:26.351Z,42.80
2023-03-21T04:45:53.743Z,40.72
2023-03-21T04:48:24.830Z,43.08
2023-03-21T04:50:52.891Z,39.13
2023-03-21T04:53:20.336Z,43.70
2023-03-21T04:55:48.170Z,40.53
2023-03-21T04:58:16.500Z,38.15
2023-03-21T05:00:43.874Z,41.92
2023-03-21T05:03:11.218Z,42.88
2023-03-21T05:05:39.041Z,43.47
2023-03-21T05:08:06.866Z,41.33
2023-03-21T05:10:34.481Z,40.47
2023-03-21T05:13:01.810Z,42.17
2023-03-21T05:15:29.229Z,40.75
2023-03-21T05:17:58.998Z,45.53
2023-03-21T05:20:26.785Z,42.90
2023-03-21T05:22:54.363Z,38.50
2023-03-21T05:25:35.701Z,42.95
2023-03-21T05:28:03.034Z,46.33
2023-03-21T05:30:30.352Z,43.17
2023-03-21T05:32:58.135Z,46.05
2023-03-21T05:35:26.874Z,40.13
2023-03-21T05:37:54.578Z,43.45
2023-03-21T05:40:21.930Z,45.47
2023-03-21T05:42:49.747Z,40.30
2023-03-21T05:45:17.431Z,45.90
2023-03-21T05:47:44.879Z,46.17
2023-03-21T05:50:13.690Z,48.40
2023-03-21T05:52:41.288Z,51.55
2023-03-21T05:55:09.133Z,47.00
2023-03-21T05:57:39.423Z,43.83
2023-03-21T06:00:08.832Z,47.65
2023-03-21T06:02:36.022Z,51.00
2023-03-21T06:05:03.487Z,48.03
2023-03-21T06:07:30.870Z,48.00
2023-03-21T06:09:58.210Z,49.22
2023-03-21T06:12:25.570Z,47.67
2023-03-21T06:14:52.911Z,50.67
2023-03-21T06:17:20.400Z,44.25
2023-03-21T06:19:47.609Z,47.08
2023-03-21T06:22:14.994Z,47.30
2023-03-21T06:24:42.582Z,49.30
2023-03-21T06:27:10.204Z,43.55
2023-03-21T06:29:37.508Z,45.95
2023-03-21T06:32:05.093Z,47.28
2023-03-21T06:34:32.737Z,46.78
2023-03-21T06:37:00.063Z,40.83
2023-03-21T06:39:27.356Z,45.50
2023-03-21T06:41:54.506Z,45.47
2023-03-21T06:44:22.496Z,48.90
2023-03-21T06:46:49.735Z,54.88
2023-03-21T06:49:17.526Z,58.17
2023-03-21T06:51:44.848Z,54.30
2023-03-21T06:54:12.464Z,53.83
2023-03-21T06:56:39.764Z,57.10
2023-03-21T06:59:07.099Z,53.10
2023-03-21T07:01:34.905Z,52.05
2023-03-21T07:04:02.581Z,54.03
2023-03-21T07:06:30.617Z,58.60
2023-03-21T07:08:58.391Z,56.88
2023-03-21T07:11:26.374Z,57.88
2023-03-21T07:13:53.691Z,62.42
2023-03-21T07:16:21.983Z,54.40
2023-03-21T07:18:49.733Z,55.95
2023-03-21T07:21:20.440Z,50.17
2023-03-21T07:23:48.058Z,56.47
2023-03-21T07:26:16.546Z,58.08
2023-03-21T07:28:43.902Z,51.28
2023-03-21T07:31:16.697Z,49.05
2023-03-21T07:33:44.394Z,59.35
2023-03-21T07:36:15.614Z,58.20
2023-03-21T07:38:44.834Z,48.05
2023-03-21T07:41:13.458Z,52.30
2023-03-21T07:43:40.936Z,50.83
2023-03-21T07:46:08.478Z,54.83
2023-03-21T07:48:35.820Z,50.13
2023-03-21T07:51:03.195Z,50.25
2023-03-21T07:53:30.458Z,50.63
2023-03-21T07:55:57.945Z,49.92
2023-03-21T07:58:26.922Z,48.58
2023-03-21T08:00:56.837Z,48.63
2023-03-21T08:03:24.408Z,48.28
2023-03-21T08:05:51.775Z,50.28
2023-03-21T08:08:19.076Z,46.28
2023-03-21T08:10:46.731Z,51.85
2023-03-21T08:13:14.207Z,53.05
2023-03-21T08:15:42.678Z,52.13
2023-03-21T08:18:10.850Z,49.65
2023-03-21T08:20:38.650Z,45.47
2023-03-21T08:23:06.155Z,44.47
2023-03-21T08:25:33.628Z,48.03
2023-03-21T08:28:01.128Z,47.60
2023-03-21T08:30:29.745Z,46.40
2023-03-21T08:33:01.192Z,41.72
2023-03-21T08:35:29.854Z,45.55
2023-03-21T08:37:57.712Z,42.33
2023-03-21T08:40:25.202Z,47.92
2023-03-21T08:42:52.692Z,48.28
2023-03-21T08:45:20.527Z,52.40
2023-03-21T08:47:48.105Z,48.30
2023-03-21T08:50:21.586Z,47.20
2023-03-21T08:52:49.901Z,61.13
2023-03-21T08:55:19.017Z,56.33
2023-03-21T08:57:46.846Z,50.30
2023-03-21T09:00:18.091Z,49.70
2023-03-21T09:02:47.237Z,56.40
2023-03-21T09:05:18.844Z,46.45
2023-03-21T09:07:46.693Z,45.72
2023-03-21T09:10:21.587Z,54.30
2023-03-21T09:12:52.119Z,49.83
2023-03-21T09:15:22.199Z,47.85
2023-03-21T09:17:55.139Z,49.88
2023-03-21T09:20:31.563Z,59.80
2023-03-21T09:22:59.992Z,47.42
2023-03-21T09:25:31.810Z,46.75
2023-03-21T09:28:00.950Z,54.70
2023-03-21T09:30:28.954Z,54.97
2023-03-21T09:32:56.530Z,48.53
2023-03-21T09:35:25.080Z,51.00
2023-03-21T09:37:52.780Z,50.22
2023-03-21T09:40:27.765Z,53.53
2023-03-21T09:43:29.116Z,46.50
2023-03-21T09:46:09.572Z,44.20
2023-03-21T09:48:57.545Z,48.70
2023-03-21T09:51:33.882Z,44.00
2023-03-21T09:54:07.736Z,51.63
2023-03-21T09:56:38.034Z,44.13
2023-03-21T09:59:09.276Z,40.63
2023-03-21T10:01:42.408Z,37.28
2023-03-21T10:04:16.962Z,48.10
2023-03-21T10:06:46.107Z,38.17
2023-03-21T10:09:24.807Z,41.70
2023-03-21T10:12:08.762Z,38.53
2023-03-21T10:14:40.220Z,35.30
2023-03-21T10:17:28.969Z,39.83
2023-03-21T10:20:15.258Z,37.92
2023-03-21T10:22:44.578Z,32.80
2023-03-21T10:25:19.514Z,32.97
2023-03-21T10:27:48.635Z,34.35
2023-03-21T10:30:30.572Z,26.90
2023-03-21T10:33:05.437Z,27.20
2023-03-21T10:35:37.505Z,32.25
2023-03-21T10:38:07.008Z,29.23
2023-03-21T10:40:35.509Z,29.38
2023-03-21T10:43:30.564Z,25.40
2023-03-21T10:45:58.623Z,28.50
2023-03-21T10:48:26.384Z,27.63
2023-03-21T10:50:55.662Z,28.50
2023-03-21T10:53:40.594Z,28.30
2023-03-21T10:56:12.930Z,30.17
2023-03-21T10:58:45.783Z,31.40
2023-03-21T11:01:22.355Z,28.42
2023-03-21T11:03:49.934Z,30.73
2023-03-21T11:06:27.479Z,32.30
2023-03-21T11:08:58.228Z,33.17
2023-03-21T11:11:28.395Z,25.63
2023-03-21T11:14:02.013Z,31.38
2023-03-21T11:16:41.167Z,30.20
2023-03-21T11:19:16.042Z,26.35
2023-03-21T11:21:43.746Z,29.40
2023-03-21T11:24:17.799Z,28.67
2023-03-21T11:26:48.602Z,30.15
2023-03-21T11:29:27.937Z,26.10
2023-03-21T11:32:02.885Z,26.40
2023-03-21T11:34:50.591Z,30.15
2023-03-21T11:37:40.176Z,28.23
2023-03-21T11:40:22.408Z,22.27
2023-03-21T11:43:05.034Z,26.15
2023-03-21T11:45:39.115Z,25.83
2023-03-21T11:48:15.461Z,21.58
2023-03-21T11:50:47.714Z,27.45
2023-03-21T11:53:29.021Z,21.80
2023-03-21T11:56:07.731Z,25.35
2023-03-21T11:58:45.163Z,26.00
2023-03-21T12:01:19.595Z,25.50
2023-03-21T12:04:07.479Z,24.20
2023-03-21T12:06:50.255Z,23.13
2023-03-21T12:09:23.381Z,17.88
2023-03-21T12:12:09.254Z,19.92
2023-03-21T12:14:51.843Z,26.55
2023-03-21T12:17:52.070Z,21.13
2023-03-21T12:20:46.945Z,25.25
2023-03-21T12:23:46.896Z,22.08
2023-03-21T12:26:30.664Z,24.10
2023-03-21T12:29:30.418Z,21.60
2023-03-21T12:32:26.287Z,31.27
2023-03-21T12:35:12.500Z,20.38
2023-03-21T12:37:57.999Z,22.42
2023-03-21T12:40:44.063Z,20.88
2023-03-21T12:43:44.791Z,28.13
2023-03-21T12:46:17.248Z,20.20
2023-03-21T12:48:59.093Z,21.08
2023-03-21T12:51:33.073Z,20.30
2023-03-21T12:54:18.095Z,19.13
2023-03-21T12:56:55.991Z,20.95
2023-03-21T12:59:34.978Z,27.25
2023-03-21T13:02:15.961Z,19.35
2023-03-21T13:04:46.961Z,20.95
2023-03-21T13:07:18.424Z,23.63
2023-03-21T13:09:47.067Z,16.27
2023-03-21T13:12:41.893Z,24.30
2023-03-21T13:15:27.935Z,15.10
2023-03-21T13:18:27.354Z,20.00
2023-03-21T13:21:01.165Z,22.92
2023-03-21T13:23:37.276Z,23.85
2023-03-21T13:26:11.484Z,22.08
2023-03-21T13:28:41.674Z,20.48
2023-03-21T13:31:51.357Z,18.23
2023-03-21T13:34:23.057Z,20.23
2023-03-21T13:36:52.423Z,18.13
2023-03-21T13:39:30.045Z,17.85
2023-03-21T13:42:04.770Z,24.17
2023-03-21T13:44:50.015Z,16.65
2023-03-21T13:47:28.518Z,18.73
2023-03-21T13:50:14.648Z,20.88
2023-03-21T13:52:42.093Z,16.08
2023-03-21T13:55:19.982Z,18.20
2023-03-21T13:57:48.085Z,16.25
2023-03-21T14:00:19.983Z,17.25
2023-03-21T14:02:57.592Z,20.38
2023-03-21T14:05:27.806Z,19.50
2023-03-21T14:08:15.242Z,16.83
2023-03-21T14:10:49.269Z,18.25
2023-03-21T14:13:20.342Z,20.92
2023-03-21T14:15:58.292Z,28.90
2023-03-21T14:18:51.782Z,17.38
2023-03-21T14:21:23.677Z,14.70
2023-03-21T14:24:18.711Z,20.05
2023-03-21T14:26:52.126Z,19.48
2023-03-21T14:29:39.889Z,18.98
2023-03-21T14:32:10.061Z,26.10
2023-03-21T14:34:37.980Z,19.15
2023-03-21T14:37:08.181Z,17.15
2023-03-21T14:39:35.652Z,19.33
2023-03-21T14:42:08.367Z,20.05
2023-03-21T14:44:53.958Z,21.42
2023-03-21T14:47:32.267Z,21.30
2023-03-21T14:50:01.806Z,19.83
2023-03-21T14:52:34.528Z,17.67
2023-03-21T14:55:06.269Z,19.65
2023-03-21T14:57:34.123Z,21.30
2023-03-21T15:00:13.036Z,20.65
2023-03-21T15:02:42.329Z,16.88
2023-03-21T15:05:21.125Z,18.35
2023-03-21T15:08:01.459Z,22.48
2023-03-21T15:10:31.427Z,20.02
2023-03-21T15:13:01.919Z,25.00
2023-03-21T15:15:31.912Z,18.25
2023-03-21T15:18:04.664Z,16.63
2023-03-21T15:20:36.125Z,18.73
2023-03-21T15:23:27.867Z,23.35
2023-03-21T15:25:55.602Z,18.60
2023-03-21T15:28:23.111Z,20.30
2023-03-21T15:30:52.704Z,20.42
2023-03-21T15:33:21.122Z,19.00
2023-03-21T15:35:55.885Z,19.98
2023-03-21T15:38:40.678Z,20.33
2023-03-21T15:41:17.514Z,23.48
2023-03-21T15:43:45.132Z,17.05
2023-03-21T15:46:49.094Z,18.63
2023-03-21T15:49:16.663Z,18.42
2023-03-21T15:51:52.593Z,21.60
2023-03-21T15:54:57.108Z,18.75
2023-03-21T15:57:26.274Z,20.52
2023-03-21T16:00:29.525Z,18.33
2023-03-21T16:03:01.375Z,22.63
2023-03-21T16:05:36.527Z,19.13
2023-03-21T16:08:20.237Z,17.45
2023-03-21T16:10:49.296Z,19.33
2023-03-21T16:13:17.915Z,18.63
2023-03-21T16:15:51.258Z,18.17
2023-03-21T16:18:19.344Z,18.73
2023-03-21T16:20:47.430Z,17.92
2023-03-21T16:23:16.221Z,12.60
2023-03-21T16:25:44.671Z,18.52
2023-03-21T16:28:16.932Z,15.73
2023-03-21T16:30:44.543Z,25.13
2023-03-21T16:33:13.106Z,15.73
2023-03-21T16:35:40.740Z,10.77
2023-03-21T16:38:08.053Z,14.00
2023-03-21T16:40:38.788Z,16.45
2023-03-21T16:43:07.210Z,8.90
2023-03-21T16:45:35.065Z,10.43
2023-03-21T16:48:02.956Z,12.82
2023-03-21T16:50:35.439Z,11.55
2023-03-21T16:53:03.598Z,15.63
2023-03-21T16:55:33.940Z,12.38
2023-03-21T16:58:02.283Z,11.27
2023-03-21T17:00:31.332Z,12.50
2023-03-21T17:03:02.669Z,10.63
2023-03-21T17:05:33.040Z,7.03
2023-03-21T17:08:02.711Z,9.20
2023-03-21T17:10:32.484Z,9.60
2023-03-21T17:13:02.818Z,10.80
2023-03-21T17:15:30.466Z,9.40
2023-03-21T17:17:57.846Z,14.57
2023-03-21T17:20:29.529Z,11.45
2023-03-21T17:22:56.856Z,12.23
2023-03-21T17:25:25.046Z,15.77
2023-03-21T17:27:55.033Z,12.20
2023-03-21T17:30:32.373Z,13.93
2023-03-21T17:33:00.194Z,12.25
2023-03-21T17:35:28.519Z,12.25
2023-03-21T17:37:58.699Z,13.60
2023-03-21T17:40:29.457Z,12.82
2023-03-21T17:42:58.236Z,15.82
2023-03-21T17:45:28.183Z,15.23
2023-03-21T17:47:55.856Z,11.90
2023-03-21T17:50:26.229Z,11.05
2023-03-21T17:52:56.630Z,11.50
2023-03-21T17:55:24.504Z,14.05
2023-03-21T17:57:52.773Z,10.10
2023-03-21T18:00:25.473Z,11.43
2023-03-21T18:02:53.722Z,15.77
2023-03-21T18:05:21.930Z,10.90
2023-03-21T18:08:09.738Z,17.60
2023-03-21T18:10:38.707Z,13.25
2023-03-21T18:13:06.183Z,13.80
2023-03-21T18:15:33.662Z,14.57
2023-03-21T18:18:01.275Z,13.95
2023-03-21T18:20:49.761Z,14.95
2023-03-21T18:23:16.307Z,15.38
2023-03-21T18:25:43.734Z,11.52
2023-03-21T18:28:14.157Z,18.80
2023-03-21T18:33:30.446Z,18.98
2023-03-21T18:35:59.886Z,16.30
2023-03-21T18:38:31.027Z,17.08
2023-03-21T18:40:58.401Z,13.07
2023-03-21T18:46:16.754Z,21.02
2023-03-21T18:48:44.596Z,13.45
2023-03-21T18:51:12.615Z,17.05
2023-03-21T18:53:39.938Z,15.75
2023-03-21T18:56:10.105Z,15.02
2023-03-21T18:58:38.037Z,18.45
2023-03-21T19:01:05.727Z,19.58
2023-03-21T19:03:37.075Z,19.75
2023-03-21T19:06:05.750Z,22.30
2023-03-21T19:08:34.963Z,19.70
2023-03-21T19:11:05.961Z,19.25
2023-03-21T19:13:34.396Z,21.27
2023-03-21T19:16:03.115Z,23.52
2023-03-21T19:18:53.344Z,19.92
2023-03-21T19:21:22.182Z,23.27
2023-03-21T19:24:22.927Z,21.35
2023-03-21T19:26:37.409Z,20.20
2023-03-21T19:29:04.848Z,23.30
2023-03-21T19:31:32.319Z,30.75
2023-03-21T19:33:59.558Z,23.55
2023-03-21T19:36:27.209Z,22.92
2023-03-21T19:38:55.005Z,25.88
2023-03-21T19:41:22.467Z,26.08
2023-03-21T19:43:55.198Z,31.50
2023-03-21T19:46:25.566Z,46.50
2023-03-21T19:48:57.572Z,30.10
2023-03-21T19:51:29.125Z,31.92
2023-03-21T19:54:03.624Z,23.25
2023-03-21T19:56:31.806Z,29.20
2023-03-21T19:59:00.270Z,24.35
2023-03-21T20:01:28.041Z,26.60
2023-03-21T20:03:55.912Z,21.80
2023-03-21T20:06:24.398Z,29.27
2023-03-21T20:11:40.320Z,30.90
2023-03-21T20:14:07.642Z,28.83
2023-03-21T20:16:37.090Z,25.60
2023-03-21T20:19:06.433Z,28.50
2023-03-21T20:21:44.367Z,26.83
2023-03-21T20:24:19.608Z,30.83
2023-03-21T20:26:47.269Z,27.13
2023-03-21T20:32:02.028Z,29.55
2023-03-21T20:34:30.548Z,32.58
2023-03-21T20:36:58.830Z,30.70
2023-03-21T20:39:28.634Z,33.65
2023-03-21T20:41:59.398Z,26.80
2023-03-21T20:44:57.288Z,27.17
2023-03-21T20:47:15.931Z,30.88
2023-03-21T20:49:43.767Z,30.77
2023-03-21T20:54:58.954Z,31.92
2023-03-21T20:57:28.333Z,33.72
2023-03-21T20:59:56.544Z,33.05
2023-03-21T21:02:24.906Z,36.55
2023-03-21T21:05:23.666Z,38.70
2023-03-21T21:07:43.154Z,36.45
2023-03-21T21:10:14.260Z,33.83
2023-03-21T21:12:45.448Z,37.95
2023-03-21T21:15:17.006Z,33.78
2023-03-21T21:20:33.900Z,37.22
2023-03-21T21:23:01.532Z,30.63
2023-03-21T21:25:32.103Z,35.45
2023-03-21T21:27:59.590Z,32.95
2023-03-21T21:30:27.147Z,31.15
2023-03-21T21:32:54.481Z,34.53
2023-03-21T21:35:22.630Z,33.13
2023-03-21T21:37:51.564Z,30.00
2023-03-21T21:40:20.904Z,28.95
2023-03-21T21:42:48.530Z,35.90
2023-03-21T21:45:16.352Z,35.60
2023-03-21T21:47:46.726Z,37.53
2023-03-21T21:50:14.614Z,40.88
2023-03-21T21:52:44.053Z,36.10
2023-03-21T21:55:13.820Z,38.63
2023-03-21T21:57:41.313Z,30.85
2023-03-21T22:00:14.347Z,34.25
2023-03-21T22:02:42.126Z,31.35
2023-03-21T22:05:10.841Z,30.25
2023-03-21T22:07:39.356Z,36.33
2023-03-21T22:10:09.779Z,32.40
2023-03-21T22:12:37.380Z,34.45
2023-03-21T22:15:07.802Z,33.70
2023-03-21T22:17:36.701Z,30.20
2023-03-21T22:20:07.121Z,28.75
2023-03-21T22:22:35.359Z,32.85
2023-03-21T22:25:04.271Z,37.22
2023-03-21T22:27:32.005Z,30.35
2023-03-21T22:30:05.026Z,42.35
2023-03-21T22:32:35.475Z,42.67
2023-03-21T22:35:03.559Z,36.78
2023-03-21T22:37:31.921Z,52.22
2023-03-21T22:39:59.430Z,36.28
2023-03-21T22:42:27.535Z,34.35
2023-03-21T22:44:55.130Z,40.80
2023-03-21T22:47:22.680Z,68.97
2023-03-21T22:49:50.293Z,60.35
2023-03-21T22:52:17.894Z,48.92
2023-03-21T22:54:46.307Z,41.38
2023-03-21T22:57:16.796Z,34.05
2023-03-21T22:59:44.436Z,28.70
2023-03-21T23:02:11.611Z,56.58
2023-03-21T23:04:39.053Z,31.25
2023-03-21T23:07:06.460Z,27.05
2023-03-21T23:09:34.332Z,33.38
2023-03-21T23:12:01.458Z,29.33
2023-03-21T23:14:28.714Z,29.92
2023-03-21T23:17:00.426Z,24.23
2023-03-21T23:19:29.197Z,27.88
2023-03-21T23:21:57.094Z,22.15
2023-03-21T23:24:24.939Z,27.40
2023-03-21T23:26:52.239Z,22.98
2023-03-21T23:29:19.570Z,30.95
2023-03-21T23:31:47.206Z,28.20
2023-03-21T23:34:14.657Z,27.58
2023-03-21T23:36:42.212Z,27.10
2023-03-21T23:39:10.030Z,28.25
2023-03-21T23:41:37.329Z,26.65
2023-03-21T23:44:05.171Z,22.23
2023-03-21T23:46:32.341Z,27.65
2023-03-21T23:48:59.647Z,24.52
2023-03-21T23:51:27.082Z,26.33
2023-03-21T23:53:56.795Z,24.02
2023-03-21T23:56:26.148Z,18.63
2023-03-21T23:58:53.576Z,19.48
